Vereeniging Airport

Jump to: basic info | weather | frequencies | runways | comments

Related pages: nearby airports | nearby navaids | notams | map

Basic information (top)

Codes: FAVV
Location: lon -26.566401, lat 27.960800, elev 4,846 ft / 1,477 m msl
Status: medium_airport

Weather (top)

Current conditions (rec'd 2015/01/26 15:00Z):

FAVV 261500Z AUTO /////KT //// // ////// 23/12 Q1020

Airport forecast for OR Tambo International Airport 30nm (55km) NNE (rec'd 2015/01/25 12:00Z):

TAF FAOR 251000Z 2512/2618 26010KT 9999 SCT045 PROB40 
      TEMPO 2512/2519 4000 TSRA FEW040CB 
      BECMG 2519/2521 33006KT CAVOK PROB30 
      TEMPO 2519/2522 -TSRA FEW050CB 
      BECMG 2602/2604 03007KT 
      BECMG 2607/2609 31012KT SCT045 TX30/2613ZTN17/2604Z

Frequencies (top)

Verify before use: may be inaccurate or out of date.

CTAF: 122.1 MHz (CTAF)

Runways (top)

03/21: 5,266 x 72 ft (1,605 x 22 m) — paved — lighted — threshold 21 displaced 260 ft (79 m)

15/33: 3,724 x 52 ft (1,135 x 16 m) — paved — not lighted

Latest comments (top)

help: My son whom is in Grade 11 has a school ... [read]

Information: Good day this is Mpho, i just need to ... [read]

More... (top)

See also NOTAMs and nearby airports and navaids, or visit the Vereeniging Airport page at the main OurAirports website..